sensor_id;sensor_type;location;lat;lon;timestamp;P1;durP1;ratioP1;P2;durP2;ratioP2
40653;SDS011;26344;45.532;9.232;2023-04-01T00:01:55;8.43;;;5.30;;
40653;SDS011;26344;45.532;9.232;2023-04-01T00:04:21;7.70;;;5.18;;
40653;SDS011;26344;45.532;9.232;2023-04-01T00:06:47;9.70;;;5.05;;
40653;SDS011;26344;45.532;9.232;2023-04-01T00:09:13;8.20;;;4.90;;
40653;SDS011;26344;45.532;9.232;2023-04-01T00:11:40;6.43;;;4.60;;
40653;SDS011;26344;45.532;9.232;2023-04-01T00:14:06;7.60;;;5.05;;
40653;SDS011;26344;45.532;9.232;2023-04-01T00:16:32;6.38;;;4.57;;
40653;SDS011;26344;45.532;9.232;2023-04-01T00:18:58;7.80;;;4.68;;
40653;SDS011;26344;45.532;9.232;2023-04-01T00:21:25;8.23;;;4.65;;
40653;SDS011;26344;45.532;9.232;2023-04-01T00:23:51;6.30;;;4.07;;
40653;SDS011;26344;45.532;9.232;2023-04-01T00:26:17;6.07;;;4.20;;
40653;SDS011;26344;45.532;9.232;2023-04-01T00:28:44;7.50;;;4.28;;
40653;SDS011;26344;45.532;9.232;2023-04-01T00:31:10;6.80;;;4.40;;
40653;SDS011;26344;45.532;9.232;2023-04-01T00:33:37;5.85;;;3.65;;
40653;SDS011;26344;45.532;9.232;2023-04-01T00:36:07;8.63;;;3.72;;
40653;SDS011;26344;45.532;9.232;2023-04-01T00:38:34;7.05;;;4.30;;
40653;SDS011;26344;45.532;9.232;2023-04-01T00:41:00;4.78;;;4.00;;
40653;SDS011;26344;45.532;9.232;2023-04-01T00:43:26;5.13;;;3.65;;
40653;SDS011;26344;45.532;9.232;2023-04-01T00:45:52;6.75;;;4.13;;
40653;SDS011;26344;45.532;9.232;2023-04-01T00:48:19;6.20;;;3.83;;
40653;SDS011;26344;45.532;9.232;2023-04-01T00:50:48;5.03;;;3.60;;
40653;SDS011;26344;45.532;9.232;2023-04-01T00:53:14;5.85;;;3.80;;
40653;SDS011;26344;45.532;9.232;2023-04-01T00:55:42;5.20;;;3.70;;
40653;SDS011;26344;45.532;9.232;2023-04-01T00:58:11;5.93;;;3.58;;
40653;SDS011;26344;45.532;9.232;2023-04-01T01:00:38;5.18;;;3.58;;
40653;SDS011;26344;45.532;9.232;2023-04-01T01:03:04;8.70;;;3.80;;
40653;SDS011;26344;45.532;9.232;2023-04-01T01:05:35;6.40;;;3.78;;
40653;SDS011;26344;45.532;9.232;2023-04-01T01:08:07;4.97;;;3.35;;
40653;SDS011;26344;45.532;9.232;2023-04-01T01:10:38;5.25;;;3.42;;
40653;SDS011;26344;45.532;9.232;2023-04-01T01:13:10;5.15;;;3.55;;
40653;SDS011;26344;45.532;9.232;2023-04-01T01:31:23;6.18;;;4.03;;
40653;SDS011;26344;45.532;9.232;2023-04-01T01:36:17;5.25;;;3.22;;
40653;SDS011;26344;45.532;9.232;2023-04-01T01:38:44;5.25;;;3.53;;
40653;SDS011;26344;45.532;9.232;2023-04-01T01:41:11;5.00;;;3.42;;
40653;SDS011;26344;45.532;9.232;2023-04-01T01:43:42;7.45;;;3.28;;
40653;SDS011;26344;45.532;9.232;2023-04-01T01:46:10;5.18;;;3.45;;
40653;SDS011;26344;45.532;9.232;2023-04-01T01:48:37;5.43;;;3.35;;
40653;SDS011;26344;45.532;9.232;2023-04-01T01:51:07;7.43;;;3.53;;
40653;SDS011;26344;45.532;9.232;2023-04-01T01:53:33;4.93;;;3.30;;
40653;SDS011;26344;45.532;9.232;2023-04-01T01:55:59;4.68;;;3.40;;
40653;SDS011;26344;45.532;9.232;2023-04-01T02:00:56;7.40;;;3.35;;
40653;SDS011;26344;45.532;9.232;2023-04-01T02:03:23;6.43;;;3.15;;
40653;SDS011;26344;45.532;9.232;2023-04-01T02:05:50;8.82;;;3.88;;
40653;SDS011;26344;45.532;9.232;2023-04-01T02:08:21;6.85;;;3.85;;
40653;SDS011;26344;45.532;9.232;2023-04-01T02:10:55;5.07;;;3.63;;
40653;SDS011;26344;45.532;9.232;2023-04-01T02:13:24;4.85;;;3.47;;
40653;SDS011;26344;45.532;9.232;2023-04-01T02:15:52;10.18;;;3.83;;
40653;SDS011;26344;45.532;9.232;2023-04-01T02:18:20;5.97;;;3.47;;
40653;SDS011;26344;45.532;9.232;2023-04-01T02:20:46;6.90;;;4.55;;
40653;SDS011;26344;45.532;9.232;2023-04-01T02:23:13;5.65;;;3.50;;
40653;SDS011;26344;45.532;9.232;2023-04-01T02:25:39;6.88;;;3.80;;
40653;SDS011;26344;45.532;9.232;2023-04-01T02:28:07;6.32;;;3.95;;
40653;SDS011;26344;45.532;9.232;2023-04-01T02:30:35;9.90;;;4.43;;
40653;SDS011;26344;45.532;9.232;2023-04-01T02:33:02;7.68;;;4.40;;
40653;SDS011;26344;45.532;9.232;2023-04-01T02:35:28;8.23;;;4.85;;
40653;SDS011;26344;45.532;9.232;2023-04-01T02:37:55;9.32;;;4.50;;
40653;SDS011;26344;45.532;9.232;2023-04-01T02:40:21;6.78;;;4.10;;
40653;SDS011;26344;45.532;9.232;2023-04-01T02:42:47;7.30;;;4.07;;
40653;SDS011;26344;45.532;9.232;2023-04-01T02:45:13;8.75;;;4.68;;
40653;SDS011;26344;45.532;9.232;2023-04-01T02:47:40;7.05;;;4.32;;
40653;SDS011;26344;45.532;9.232;2023-04-01T02:50:06;6.03;;;4.05;;
40653;SDS011;26344;45.532;9.232;2023-04-01T02:52:32;10.23;;;4.78;;
40653;SDS011;26344;45.532;9.232;2023-04-01T02:54:58;6.90;;;4.35;;
40653;SDS011;26344;45.532;9.232;2023-04-01T02:57:24;7.60;;;4.50;;
40653;SDS011;26344;45.532;9.232;2023-04-01T02:59:51;7.03;;;4.13;;
40653;SDS011;26344;45.532;9.232;2023-04-01T03:02:17;7.97;;;4.55;;
40653;SDS011;26344;45.532;9.232;2023-04-01T03:04:43;6.85;;;4.05;;
40653;SDS011;26344;45.532;9.232;2023-04-01T03:07:09;7.93;;;4.28;;
40653;SDS011;26344;45.532;9.232;2023-04-01T03:09:36;7.30;;;4.00;;
40653;SDS011;26344;45.532;9.232;2023-04-01T03:12:02;10.50;;;4.03;;
40653;SDS011;26344;45.532;9.232;2023-04-01T03:14:28;6.57;;;4.18;;
40653;SDS011;26344;45.532;9.232;2023-04-01T03:16:54;6.53;;;3.63;;
40653;SDS011;26344;45.532;9.232;2023-04-01T03:19:20;7.25;;;3.80;;
40653;SDS011;26344;45.532;9.232;2023-04-01T03:21:46;7.43;;;3.72;;
40653;SDS011;26344;45.532;9.232;2023-04-01T03:24:12;6.53;;;3.70;;
40653;SDS011;26344;45.532;9.232;2023-04-01T03:26:38;7.25;;;3.78;;
40653;SDS011;26344;45.532;9.232;2023-04-01T03:29:04;6.95;;;3.85;;
40653;SDS011;26344;45.532;9.232;2023-04-01T03:31:30;7.45;;;3.65;;
40653;SDS011;26344;45.532;9.232;2023-04-01T03:33:56;5.22;;;3.42;;
40653;SDS011;26344;45.532;9.232;2023-04-01T03:36:22;6.55;;;3.53;;
40653;SDS011;26344;45.532;9.232;2023-04-01T03:38:48;7.15;;;3.60;;
40653;SDS011;26344;45.532;9.232;2023-04-01T03:41:15;4.97;;;3.38;;
40653;SDS011;26344;45.532;9.232;2023-04-01T03:43:41;4.43;;;2.97;;
40653;SDS011;26344;45.532;9.232;2023-04-01T03:46:07;5.00;;;3.25;;
40653;SDS011;26344;45.532;9.232;2023-04-01T03:48:33;10.85;;;3.05;;
40653;SDS011;26344;45.532;9.232;2023-04-01T03:51:00;6.43;;;3.50;;
40653;SDS011;26344;45.532;9.232;2023-04-01T03:53:26;6.57;;;3.28;;
40653;SDS011;26344;45.532;9.232;2023-04-01T03:55:52;5.35;;;3.13;;
40653;SDS011;26344;45.532;9.232;2023-04-01T03:58:18;5.60;;;2.88;;
40653;SDS011;26344;45.532;9.232;2023-04-01T04:00:44;8.60;;;2.80;;
40653;SDS011;26344;45.532;9.232;2023-04-01T04:03:10;5.63;;;3.10;;
40653;SDS011;26344;45.532;9.232;2023-04-01T04:05:36;5.18;;;2.72;;
40653;SDS011;26344;45.532;9.232;2023-04-01T04:08:02;4.22;;;2.67;;
40653;SDS011;26344;45.532;9.232;2023-04-01T04:10:28;4.35;;;2.63;;
40653;SDS011;26344;45.532;9.232;2023-04-01T04:12:54;7.57;;;2.78;;
40653;SDS011;26344;45.532;9.232;2023-04-01T04:15:20;5.82;;;3.05;;
40653;SDS011;26344;45.532;9.232;2023-04-01T04:17:47;4.22;;;2.92;;
40653;SDS011;26344;45.532;9.232;2023-04-01T04:20:13;3.78;;;2.63;;
40653;SDS011;26344;45.532;9.232;2023-04-01T04:22:39;10.43;;;2.92;;
40653;SDS011;26344;45.532;9.232;2023-04-01T04:25:05;4.88;;;2.70;;
40653;SDS011;26344;45.532;9.232;2023-04-01T04:27:31;6.20;;;2.67;;
40653;SDS011;26344;45.532;9.232;2023-04-01T04:29:57;5.57;;;3.00;;
40653;SDS011;26344;45.532;9.232;2023-04-01T04:32:23;8.73;;;2.50;;
40653;SDS011;26344;45.532;9.232;2023-04-01T04:34:49;4.13;;;2.60;;
40653;SDS011;26344;45.532;9.232;2023-04-01T04:37:15;4.50;;;2.83;;
40653;SDS011;26344;45.532;9.232;2023-04-01T04:39:41;4.32;;;3.05;;
40653;SDS011;26344;45.532;9.232;2023-04-01T04:42:07;6.47;;;2.92;;
40653;SDS011;26344;45.532;9.232;2023-04-01T04:44:33;4.57;;;2.72;;
40653;SDS011;26344;45.532;9.232;2023-04-01T04:46:59;7.32;;;2.92;;
40653;SDS011;26344;45.532;9.232;2023-04-01T04:49:25;5.10;;;2.60;;
40653;SDS011;26344;45.532;9.232;2023-04-01T04:51:51;4.35;;;2.40;;
40653;SDS011;26344;45.532;9.232;2023-04-01T04:54:17;6.05;;;3.28;;
40653;SDS011;26344;45.532;9.232;2023-04-01T04:56:43;6.47;;;2.90;;
40653;SDS011;26344;45.532;9.232;2023-04-01T04:59:09;6.57;;;2.90;;
40653;SDS011;26344;45.532;9.232;2023-04-01T05:01:35;4.03;;;2.55;;
40653;SDS011;26344;45.532;9.232;2023-04-01T05:04:01;7.85;;;2.78;;
40653;SDS011;26344;45.532;9.232;2023-04-01T05:06:27;3.78;;;2.60;;
40653;SDS011;26344;45.532;9.232;2023-04-01T05:08:54;5.18;;;2.90;;
40653;SDS011;26344;45.532;9.232;2023-04-01T05:11:20;5.30;;;2.70;;
40653;SDS011;26344;45.532;9.232;2023-04-01T05:13:47;5.43;;;2.90;;
40653;SDS011;26344;45.532;9.232;2023-04-01T05:16:14;3.67;;;2.38;;
40653;SDS011;26344;45.532;9.232;2023-04-01T05:18:40;7.95;;;2.90;;
40653;SDS011;26344;45.532;9.232;2023-04-01T05:21:09;8.05;;;2.88;;
40653;SDS011;26344;45.532;9.232;2023-04-01T05:23:36;5.20;;;2.22;;
40653;SDS011;26344;45.532;9.232;2023-04-01T05:26:03;4.70;;;2.33;;
40653;SDS011;26344;45.532;9.232;2023-04-01T05:28:30;4.65;;;2.55;;
40653;SDS011;26344;45.532;9.232;2023-04-01T05:30:57;4.22;;;1.90;;
40653;SDS011;26344;45.532;9.232;2023-04-01T05:33:23;3.78;;;2.20;;
40653;SDS011;26344;45.532;9.232;2023-04-01T05:35:49;5.70;;;2.20;;
40653;SDS011;26344;45.532;9.232;2023-04-01T05:38:15;3.05;;;2.15;;
40653;SDS011;26344;45.532;9.232;2023-04-01T05:40:41;2.55;;;1.80;;
40653;SDS011;26344;45.532;9.232;2023-04-01T05:43:07;6.15;;;2.63;;
40653;SDS011;26344;45.532;9.232;2023-04-01T05:45:34;4.22;;;2.40;;
40653;SDS011;26344;45.532;9.232;2023-04-01T05:48:00;4.78;;;2.45;;
40653;SDS011;26344;45.532;9.232;2023-04-01T05:50:26;4.80;;;2.40;;
40653;SDS011;26344;45.532;9.232;2023-04-01T05:52:53;4.15;;;2.22;;
40653;SDS011;26344;45.532;9.232;2023-04-01T05:55:19;3.63;;;2.17;;
40653;SDS011;26344;45.532;9.232;2023-04-01T05:57:46;7.45;;;2.35;;
40653;SDS011;26344;45.532;9.232;2023-04-01T06:00:16;6.80;;;2.17;;
40653;SDS011;26344;45.532;9.232;2023-04-01T06:02:42;4.57;;;2.13;;
40653;SDS011;26344;45.532;9.232;2023-04-01T06:05:27;4.25;;;2.40;;
40653;SDS011;26344;45.532;9.232;2023-04-01T06:07:55;4.20;;;2.20;;
40653;SDS011;26344;45.532;9.232;2023-04-01T06:10:23;5.10;;;2.28;;
40653;SDS011;26344;45.532;9.232;2023-04-01T06:12:56;3.35;;;2.22;;
40653;SDS011;26344;45.532;9.232;2023-04-01T06:15:34;4.03;;;2.35;;
40653;SDS011;26344;45.532;9.232;2023-04-01T06:20:47;3.78;;;2.22;;
40653;SDS011;26344;45.532;9.232;2023-04-01T06:31:34;5.70;;;2.50;;
40653;SDS011;26344;45.532;9.232;2023-04-01T06:36:43;4.22;;;2.28;;
40653;SDS011;26344;45.532;9.232;2023-04-01T06:46:58;4.88;;;2.50;;
40653;SDS011;26344;45.532;9.232;2023-04-01T06:49:31;3.35;;;2.30;;
40653;SDS011;26344;45.532;9.232;2023-04-01T06:54:48;3.25;;;2.13;;
40653;SDS011;26344;45.532;9.232;2023-04-01T06:57:23;7.00;;;2.13;;
40653;SDS011;26344;45.532;9.232;2023-04-01T06:59:51;10.48;;;2.25;;
40653;SDS011;26344;45.532;9.232;2023-04-01T07:02:32;4.85;;;2.35;;
40653;SDS011;26344;45.532;9.232;2023-04-01T07:04:59;4.68;;;2.47;;
40653;SDS011;26344;45.532;9.232;2023-04-01T07:09:53;5.07;;;2.25;;
40653;SDS011;26344;45.532;9.232;2023-04-01T07:15:04;4.32;;;2.22;;
40653;SDS011;26344;45.532;9.232;2023-04-01T07:17:32;9.32;;;2.60;;
40653;SDS011;26344;45.532;9.232;2023-04-01T07:20:03;3.55;;;2.47;;
40653;SDS011;26344;45.532;9.232;2023-04-01T07:22:42;3.85;;;2.33;;
40653;SDS011;26344;45.532;9.232;2023-04-01T07:25:13;3.55;;;2.45;;
40653;SDS011;26344;45.532;9.232;2023-04-01T07:27:41;5.47;;;2.67;;
40653;SDS011;26344;45.532;9.232;2023-04-01T07:30:12;4.20;;;2.38;;
40653;SDS011;26344;45.532;9.232;2023-04-01T07:32:41;4.82;;;2.47;;
40653;SDS011;26344;45.532;9.232;2023-04-01T07:37:59;3.22;;;2.10;;
40653;SDS011;26344;45.532;9.232;2023-04-01T07:40:34;4.00;;;1.95;;
40653;SDS011;26344;45.532;9.232;2023-04-01T07:45:40;14.60;;;1.88;;
40653;SDS011;26344;45.532;9.232;2023-04-01T07:55:43;2.85;;;2.33;;
40653;SDS011;26344;45.532;9.232;2023-04-01T07:58:14;3.50;;;2.00;;
40653;SDS011;26344;45.532;9.232;2023-04-01T08:00:46;4.35;;;1.98;;
40653;SDS011;26344;45.532;9.232;2023-04-01T08:08:19;3.90;;;1.80;;
40653;SDS011;26344;45.532;9.232;2023-04-01T08:10:54;5.55;;;1.90;;
40653;SDS011;26344;45.532;9.232;2023-04-01T08:21:30;6.93;;;1.70;;
40653;SDS011;26344;45.532;9.232;2023-04-01T08:23:57;4.68;;;2.10;;
40653;SDS011;26344;45.532;9.232;2023-04-01T08:26:35;3.83;;;2.05;;
40653;SDS011;26344;45.532;9.232;2023-04-01T08:34:09;6.72;;;1.70;;
40653;SDS011;26344;45.532;9.232;2023-04-01T08:36:51;4.57;;;1.60;;
40653;SDS011;26344;45.532;9.232;2023-04-01T08:39:30;4.50;;;1.75;;
40653;SDS011;26344;45.532;9.232;2023-04-01T08:50:22;2.47;;;1.33;;
40653;SDS011;26344;45.532;9.232;2023-04-01T08:56:12;4.57;;;1.15;;
40653;SDS011;26344;45.532;9.232;2023-04-01T09:01:29;4.25;;;1.00;;
40653;SDS011;26344;45.532;9.232;2023-04-01T09:25:52;3.03;;;0.63;;
40653;SDS011;26344;45.532;9.232;2023-04-01T09:28:34;0.80;;;0.57;;
40653;SDS011;26344;45.532;9.232;2023-04-01T09:36:18;2.78;;;1.10;;
40653;SDS011;26344;45.532;9.232;2023-04-01T09:41:25;1.95;;;1.10;;
40653;SDS011;26344;45.532;9.232;2023-04-01T09:54:23;1.45;;;0.80;;
